Time;durP1;ratioP1;P1;durP2;ratioP2;P2;SDS_P1;SDS_P2;PMS_P1;PMS_P2;Temp;Humidity;BMP_temperature;BMP_pressure;BME280_temperature;BME280_humidity;BME280_pressure;Samples;Min_cycle;Max_cycle;Signal;HPM_P1;HPM_P2
2021/03/10 00:00:49;;;;;;;12.40;8.48;;;;;;;13.77;23.44;100301.52;1788653;80;21573;-11
2021/03/10 00:03:17;;;;;;;12.45;9.00;;;;;;;13.75;23.46;100298.48;1768962;79;21606;-11
2021/03/10 00:05:45;;;;;;;15.65;8.55;;;;;;;13.73;23.44;100304.29;1774075;79;21161;-11
2021/03/10 00:08:12;;;;;;;11.73;8.35;;;;;;;13.71;23.52;100304.78;1768806;81;21151;-11
2021/03/10 00:10:39;;;;;;;12.70;7.83;;;;;;;13.70;23.46;100303.51;1800967;79;21615;-11
2021/03/10 00:13:08;;;;;;;11.48;7.83;;;;;;;13.68;23.42;100302.23;1801084;79;21157;-11
2021/03/10 00:15:36;;;;;;;10.38;8.13;;;;;;;13.66;23.44;100297.47;1780849;78;21179;-11
2021/03/10 00:18:05;;;;;;;11.97;8.25;;;;;;;13.66;23.44;100301.43;1809898;78;21250;-11
2021/03/10 00:20:32;;;;;;;10.30;7.15;;;;;;;13.65;23.47;100295.76;1738517;80;21132;-11
2021/03/10 00:22:59;;;;;;;10.48;7.08;;;;;;;13.63;23.45;100296.24;1750459;80;21638;-11
2021/03/10 00:25:27;;;;;;;11.10;7.58;;;;;;;13.62;23.44;100296.33;1824091;77;21571;-11
2021/03/10 00:27:55;;;;;;;10.30;7.40;;;;;;;13.61;23.46;100300.73;1782386;78;21492;-11
2021/03/10 00:30:23;;;;;;;13.15;7.60;;;;;;;13.60;23.46;100295.05;1761855;77;21589;-11
2021/03/10 00:32:52;;;;;;;10.78;7.50;;;;;;;13.61;23.59;100295.44;1802871;78;21137;-11
2021/03/10 00:35:22;;;;;;;11.73;7.67;;;;;;;13.63;23.66;100288.31;1751120;80;21587;-11
2021/03/10 00:37:51;;;;;;;9.90;7.42;;;;;;;13.64;23.60;100286.55;1769461;77;21210;-11
2021/03/10 00:40:18;;;;;;;11.63;7.60;;;;;;;13.66;23.71;100285.56;1794497;77;21144;-11
2021/03/10 00:42:45;;;;;;;9.95;7.10;;;;;;;13.68;23.81;100287.69;1813923;78;21485;-11
2021/03/10 00:45:14;;;;;;;10.93;6.75;;;;;;;13.70;23.94;100289.84;1778960;78;21613;-11
2021/03/10 00:47:42;;;;;;;11.00;8.03;;;;;;;13.73;23.78;100288.42;1795298;78;21148;-11
2021/03/10 00:50:11;;;;;;;10.20;7.53;;;;;;;13.75;23.94;100286.58;1794940;79;21130;-11
2021/03/10 00:52:39;;;;;;;11.30;7.72;;;;;;;13.77;23.92;100286.52;1788343;78;21170;-11
2021/03/10 00:55:08;;;;;;;9.93;7.55;;;;;;;13.79;23.91;100292.62;1789865;78;23597;-11
2021/03/10 00:57:35;;;;;;;11.75;7.28;;;;;;;13.81;23.86;100293.89;1791318;77;21083;-11
2021/03/10 01:00:05;;;;;;;11.25;7.55;;;;;;;13.82;23.88;100288.98;1784518;77;21493;-11
2021/03/10 01:02:32;;;;;;;10.13;7.65;;;;;;;13.84;23.91;100283.20;1777069;78;21572;-11
2021/03/10 01:05:01;;;;;;;14.35;7.70;;;;;;;13.84;23.92;100288.02;1823854;77;21608;-11
2021/03/10 01:07:28;;;;;;;11.85;7.67;;;;;;;13.86;23.87;100286.65;1788644;78;21444;-11
2021/03/10 01:09:55;;;;;;;12.88;7.85;;;;;;;13.87;23.95;100287.04;1789122;78;21543;-11
2021/03/10 01:12:23;;;;;;;11.48;7.72;;;;;;;13.87;23.90;100279.98;1782105;78;21221;-11
2021/03/10 01:14:50;;;;;;;9.63;7.10;;;;;;;13.88;24.06;100280.84;1829712;77;21149;-11
2021/03/10 01:17:18;;;;;;;10.88;7.80;;;;;;;13.88;23.93;100276.41;1793841;78;21150;-11
2021/03/10 01:19:45;;;;;;;9.58;7.35;;;;;;;13.89;23.91;100278.61;1812110;78;21145;-11
2021/03/10 01:22:13;;;;;;;12.98;7.42;;;;;;;13.89;23.85;100279.94;1790069;77;21126;-11
2021/03/10 01:24:40;;;;;;;11.18;7.62;;;;;;;13.89;23.89;100280.79;1793827;78;21118;-12
2021/03/10 01:27:09;;;;;;;9.85;7.60;;;;;;;13.89;23.93;100282.11;1767954;78;21133;-11
2021/03/10 01:29:36;;;;;;;11.70;7.95;;;;;;;13.89;23.89;100281.26;1793831;78;21607;-11
2021/03/10 01:32:05;;;;;;;13.13;8.90;;;;;;;13.91;23.84;100283.38;1794173;78;21126;-11
2021/03/10 01:34:33;;;;;;;13.80;8.65;;;;;;;13.91;23.78;100280.73;1823771;78;21046;-11
2021/03/10 01:37:00;;;;;;;11.70;8.98;;;;;;;13.91;23.84;100278.09;1823761;78;21181;-11
2021/03/10 01:39:27;;;;;;;12.55;9.15;;;;;;;13.93;23.95;100289.47;1811493;78;21556;-11
2021/03/10 01:41:58;;;;;;;13.62;9.40;;;;;;;13.94;23.82;100284.59;1809349;78;21158;-11
2021/03/10 01:44:25;;;;;;;13.30;8.80;;;;;;;13.94;23.77;100283.27;1823053;78;21609;-11
2021/03/10 01:46:53;;;;;;;12.33;8.13;;;;;;;13.94;23.82;100287.24;1815402;77;21128;-11
2021/03/10 01:49:22;;;;;;;11.78;8.03;;;;;;;13.95;23.68;100279.69;1779884;78;21164;-11
2021/03/10 01:51:49;;;;;;;11.85;8.48;;;;;;;13.95;23.77;100281.02;1820846;78;21138;-11
2021/03/10 01:54:16;;;;;;;11.50;8.75;;;;;;;13.96;23.91;100284.55;1823635;78;21178;-11
2021/03/10 01:56:44;;;;;;;11.00;8.33;;;;;;;13.97;23.77;100282.28;1823763;78;21204;-11
2021/03/10 01:59:11;;;;;;;11.35;8.08;;;;;;;13.97;24.00;100283.17;1792629;78;21106;-11
2021/03/10 02:01:40;;;;;;;11.80;8.13;;;;;;;13.96;23.91;100278.78;1800905;78;21149;-11
2021/03/10 02:04:09;;;;;;;13.60;8.20;;;;;;;13.97;23.93;100287.14;1823774;78;21137;-11
2021/03/10 02:06:59;;;;;;;11.33;7.60;;;;;;;13.97;23.89;100286.25;1760795;80;21140;-11
2021/03/10 02:10:05;;;;;;;12.47;7.67;;;;;;;13.96;23.97;100284.08;1790122;79;21373;-11
2021/03/10 02:13:00;;;;;;;12.80;7.53;;;;;;;13.96;23.93;100289.37;1786446;79;21145;-11
2021/03/10 02:15:49;;;;;;;12.05;7.37;;;;;;;13.95;23.97;100290.27;1794022;78;21141;-11
2021/03/10 02:18:25;;;;;;;13.15;7.45;;;;;;;13.95;23.89;100287.63;1792262;78;21133;-12
2021/03/10 02:20:56;;;;;;;11.25;7.78;;;;;;;13.94;23.97;100291.21;1744287;80;21062;-11
2021/03/10 02:23:52;;;;;;;9.13;7.17;;;;;;;13.93;24.07;100284.18;1754571;79;21092;-9
2021/03/10 02:26:55;;;;;;;10.80;7.58;;;;;;;13.93;23.98;100289.47;1809846;78;21563;-9
2021/03/10 02:29:23;;;;;;;10.58;7.08;;;;;;;13.93;23.94;100290.80;1817250;77;21107;-11
2021/03/10 02:31:50;;;;;;;8.93;6.33;;;;;;;13.92;24.13;100291.73;1746118;80;21191;-11
2021/03/10 02:34:18;;;;;;;12.07;7.58;;;;;;;13.90;24.03;100286.94;1736321;80;21168;-11
2021/03/10 02:36:48;;;;;;;10.63;7.45;;;;;;;13.90;24.01;100286.94;1781062;78;22113;-12
2021/03/10 02:39:19;;;;;;;9.73;6.42;;;;;;;13.89;24.03;100283.91;1744925;80;21614;-11
2021/03/10 02:41:47;;;;;;;9.85;6.70;;;;;;;13.90;24.03;100282.96;1737966;80;21135;-11
2021/03/10 02:44:14;;;;;;;9.93;6.55;;;;;;;13.90;24.09;100282.96;1809738;78;21237;-11
2021/03/10 02:46:43;;;;;;;7.87;6.20;;;;;;;13.90;24.04;100280.31;1805661;77;21108;-11
2021/03/10 02:49:11;;;;;;;9.50;6.65;;;;;;;13.90;24.04;100280.31;1752077;80;21188;-11
2021/03/10 02:51:38;;;;;;;8.40;6.12;;;;;;;13.90;24.06;100284.28;1765892;80;21181;-11
2021/03/10 02:54:06;;;;;;;10.25;6.40;;;;;;;13.91;24.02;100282.06;1758789;80;21203;-11
2021/03/10 02:56:34;;;;;;;8.38;6.50;;;;;;;13.91;23.98;100279.41;1768860;80;21131;-11
2021/03/10 02:59:01;;;;;;;7.15;6.08;;;;;;;13.91;24.09;100282.06;1752449;80;21144;-11
2021/03/10 03:01:28;;;;;;;9.65;6.17;;;;;;;13.92;24.17;100283.33;1765416;80;21200;-11
2021/03/10 03:03:56;;;;;;;10.63;6.15;;;;;;;13.92;24.08;100283.33;1739108;82;21226;-11
2021/03/10 03:06:23;;;;;;;7.92;5.70;;;;;;;13.92;24.20;100286.44;1743821;80;21062;-11
2021/03/10 03:08:51;;;;;;;7.78;5.95;;;;;;;13.92;24.10;100283.33;1765401;79;21170;-11
2021/03/10 03:11:19;;;;;;;7.67;5.70;;;;;;;13.94;24.22;100288.56;1761758;81;21145;-11
2021/03/10 03:13:46;;;;;;;8.75;5.90;;;;;;;13.93;24.37;100285.50;1732005;79;21170;-11
2021/03/10 03:16:13;;;;;;;7.10;5.90;;;;;;;13.95;24.36;100292.92;1795895;79;21134;-11
2021/03/10 03:18:42;;;;;;;6.58;5.83;;;;;;;13.95;24.37;100287.63;1780624;79;21102;-11
2021/03/10 03:21:09;;;;;;;9.13;6.22;;;;;;;13.96;24.44;100293.34;1754733;81;21208;-11
2021/03/10 03:23:36;;;;;;;7.87;5.78;;;;;;;13.96;24.49;100292.02;1780885;79;21105;-11
2021/03/10 03:26:03;;;;;;;7.35;5.70;;;;;;;13.98;24.37;100287.98;1751743;80;21076;-11
2021/03/10 03:28:31;;;;;;;7.28;5.37;;;;;;;13.98;24.44;100287.98;1774693;80;21116;-11
2021/03/10 03:30:58;;;;;;;7.50;5.60;;;;;;;13.98;24.35;100291.48;1771297;80;21172;-11
2021/03/10 03:33:28;;;;;;;6.05;5.30;;;;;;;13.98;24.38;100286.20;1760422;80;21164;-11
2021/03/10 03:35:57;;;;;;;7.12;5.60;;;;;;;13.99;24.48;100292.38;1741544;80;21213;-12
2021/03/10 03:38:27;;;;;;;6.67;5.37;;;;;;;14.00;24.48;100296.26;1716980;81;21255;-11
2021/03/10 03:40:55;;;;;;;6.47;5.40;;;;;;;13.99;24.41;100287.94;1806244;79;21064;-11
2021/03/10 03:43:26;;;;;;;9.35;5.78;;;;;;;14.00;24.47;100292.29;1750731;80;21191;-11
2021/03/10 03:45:54;;;;;;;7.05;5.87;;;;;;;13.99;24.50;100290.58;1779802;80;21089;-11
2021/03/10 03:48:22;;;;;;;7.75;5.67;;;;;;;14.00;24.55;100293.61;1733045;79;21133;-11
2021/03/10 03:50:49;;;;;;;6.67;5.65;;;;;;;14.00;24.49;100295.41;1774665;79;21270;-11
2021/03/10 03:53:17;;;;;;;6.22;5.03;;;;;;;13.99;24.47;100294.55;1772149;79;21162;-11
2021/03/10 03:55:44;;;;;;;6.97;5.47;;;;;;;13.99;24.47;100293.23;1796676;78;21160;-11
2021/03/10 03:58:11;;;;;;;6.85;5.47;;;;;;;13.99;24.48;100297.20;1757271;80;21147;-11
2021/03/10 04:00:39;;;;;;;6.92;5.47;;;;;;;13.99;24.54;100295.88;1777736;80;21193;-11
2021/03/10 04:03:06;;;;;;;7.33;5.05;;;;;;;13.99;24.53;100297.67;1787733;78;21142;-11
2021/03/10 04:05:34;;;;;;;9.45;5.35;;;;;;;13.99;24.52;100298.99;1782995;79;21106;-11
2021/03/10 04:08:03;;;;;;;6.37;5.25;;;;;;;14.00;24.54;100298.05;1810199;78;21127;-11
2021/03/10 04:10:34;;;;;;;6.03;5.22;;;;;;;13.99;24.51;100295.88;1785055;78;21127;-11
2021/03/10 04:13:02;;;;;;;6.90;4.92;;;;;;;13.98;24.48;100291.48;1817766;78;21151;-11
2021/03/10 04:15:32;;;;;;;9.40;5.22;;;;;;;13.97;24.51;100285.81;1793877;78;21157;-11
2021/03/10 04:18:00;;;;;;;6.85;5.40;;;;;;;13.97;24.48;100293.75;1755477;80;21167;-11
2021/03/10 04:20:28;;;;;;;6.37;5.30;;;;;;;13.98;24.51;100298.11;1788667;78;21616;-11
2021/03/10 04:22:55;;;;;;;7.00;5.35;;;;;;;13.97;24.41;100293.75;1810299;78;21138;-12
2021/03/10 04:25:23;;;;;;;6.35;5.33;;;;;;;13.96;24.51;100293.34;1813175;78;21040;-12
2021/03/10 04:27:51;;;;;;;7.05;5.87;;;;;;;13.97;24.43;100295.52;1795164;80;21206;-11
2021/03/10 04:30:21;;;;;;;6.42;5.72;;;;;;;13.97;24.56;100296.40;1823804;78;21146;-11
2021/03/10 04:32:48;;;;;;;6.75;5.83;;;;;;;13.99;24.58;100302.48;1778388;78;21608;-11
2021/03/10 04:35:16;;;;;;;7.20;5.87;;;;;;;14.00;24.56;100304.67;1771339;78;21170;-11
2021/03/10 04:37:44;;;;;;;7.87;6.20;;;;;;;14.00;24.56;100305.52;1785500;78;21183;-11
2021/03/10 04:40:13;;;;;;;7.70;5.92;;;;;;;14.01;24.55;100303.77;1745522;80;21154;-11
2021/03/10 04:42:40;;;;;;;6.58;5.85;;;;;;;14.01;24.57;100313.88;1756678;80;21141;-11
2021/03/10 04:45:12;;;;;;;7.47;6.03;;;;;;;14.02;24.57;100310.32;1808477;77;21104;-11
2021/03/10 04:47:41;;;;;;;7.80;5.90;;;;;;;14.02;24.56;100305.03;1796461;78;21200;-11
2021/03/10 04:50:10;;;;;;;7.12;6.08;;;;;;;14.04;24.48;100304.98;1789437;78;21571;-11
2021/03/10 04:52:38;;;;;;;7.25;6.00;;;;;;;14.06;24.49;100304.45;1795050;80;21587;-11
2021/03/10 04:55:07;;;;;;;9.63;5.95;;;;;;;14.08;24.56;100308.75;1757155;80;21068;-11
2021/03/10 04:57:34;;;;;;;6.67;5.53;;;;;;;14.12;24.59;100303.77;1738506;82;21751;-11
2021/03/10 05:00:04;;;;;;;7.00;5.55;;;;;;;14.13;24.68;100313.89;1765390;81;21208;-11
2021/03/10 05:02:32;;;;;;;6.53;5.87;;;;;;;14.16;24.63;100308.95;1772084;81;21132;-11
2021/03/10 05:05:02;;;;;;;6.05;5.42;;;;;;;14.17;24.56;100311.55;1722737;79;21170;-11
2021/03/10 05:07:29;;;;;;;7.00;5.65;;;;;;;14.22;24.70;100315.33;1743421;81;21156;-11
2021/03/10 05:09:57;;;;;;;7.30;5.65;;;;;;;14.23;24.71;100320.56;1770138;79;21171;-11
2021/03/10 05:12:29;;;;;;;6.92;5.85;;;;;;;14.25;24.72;100324.02;1725475;81;21080;-11
2021/03/10 05:14:53;;;;;;;6.12;5.53;;;;;;;14.27;24.70;100324.84;1750039;79;21139;-11
2021/03/10 05:17:20;;;;;;;8.03;6.00;;;;;;;14.29;24.63;100323.00;1752829;79;21261;-11
2021/03/10 05:19:48;;;;;;;7.35;5.70;;;;;;;14.31;24.58;100322.94;1761436;80;21192;-11
2021/03/10 05:22:16;;;;;;;6.10;5.50;;;;;;;14.32;24.60;100323.33;1746748;80;21208;-11
2021/03/10 05:24:43;;;;;;;6.83;5.70;;;;;;;14.35;24.68;100324.55;1785541;80;21072;-11
2021/03/10 05:27:11;;;;;;;7.25;6.10;;;;;;;14.37;24.64;100329.78;1737535;81;21124;-11
2021/03/10 05:29:38;;;;;;;7.97;5.78;;;;;;;14.40;24.67;100327.88;1756503;81;21206;-11
2021/03/10 05:32:06;;;;;;;6.35;5.67;;;;;;;14.43;24.66;100325.59;1774129;80;21192;-11
2021/03/10 05:34:34;;;;;;;6.12;5.53;;;;;;;14.44;24.62;100327.30;1729686;81;21179;-11
2021/03/10 05:37:01;;;;;;;6.65;5.95;;;;;;;14.46;24.55;100330.31;1742821;79;21120;-11
2021/03/10 05:39:28;;;;;;;8.00;6.15;;;;;;;14.49;24.55;100331.95;1744675;81;21203;-9
2021/03/10 05:41:57;;;;;;;7.12;5.60;;;;;;;14.53;24.59;100339.36;1712771;81;21191;-9
2021/03/10 05:44:25;;;;;;;8.45;5.67;;;;;;;14.56;24.66;100329.94;1742123;79;21226;-9
2021/03/10 05:46:53;;;;;;;9.00;6.22;;;;;;;14.59;24.53;100345.75;1766332;79;21159;-9
2021/03/10 05:49:22;;;;;;;7.80;6.17;;;;;;;14.60;24.59;100336.90;1761042;81;21222;-9
2021/03/10 05:51:50;;;;;;;6.30;5.50;;;;;;;14.63;24.65;100336.78;1741683;81;21148;-9
2021/03/10 05:54:19;;;;;;;7.03;5.83;;;;;;;14.66;24.72;100336.67;1742140;81;21144;-9
2021/03/10 05:56:47;;;;;;;6.60;5.90;;;;;;;14.69;24.64;100340.50;1767939;79;21165;-9
2021/03/10 05:59:14;;;;;;;7.85;6.00;;;;;;;14.72;24.66;100340.39;1770816;79;21072;-9
2021/03/10 06:01:42;;;;;;;10.23;6.42;;;;;;;14.74;24.74;100341.66;1785936;79;21128;-9
2021/03/10 06:04:10;;;;;;;11.45;6.03;;;;;;;14.75;24.60;100352.20;1774614;79;21151;-9
2021/03/10 06:06:39;;;;;;;6.65;5.58;;;;;;;14.77;24.57;100353.00;1786802;78;21200;-9
2021/03/10 06:09:19;;;;;;;8.15;5.80;;;;;;;14.80;24.62;100352.88;1803881;79;21679;-9
2021/03/10 06:12:02;;;;;;;6.83;5.75;;;;;;;14.82;24.72;100355.00;1775445;79;21649;-12
2021/03/10 06:14:32;;;;;;;7.35;5.60;;;;;;;14.86;24.62;100359.72;1775129;78;21220;-11
2021/03/10 06:17:11;;;;;;;7.62;5.33;;;;;;;14.89;24.62;100365.38;1749320;79;21567;-11
2021/03/10 06:19:46;;;;;;;8.28;6.10;;;;;;;14.91;24.70;100371.47;1769843;79;21199;-11
2021/03/10 06:22:15;;;;;;;9.13;6.47;;;;;;;14.94;24.59;100372.69;1775780;79;21192;-11
2021/03/10 06:24:42;;;;;;;7.25;5.87;;;;;;;14.96;24.55;100374.80;1774526;79;21121;-11
2021/03/10 06:27:10;;;;;;;12.28;6.67;;;;;;;14.93;24.48;100373.16;1749459;79;21172;-11
2021/03/10 06:29:38;;;;;;;7.40;6.35;;;;;;;14.94;24.54;100370.03;1774610;79;21169;-11
2021/03/10 06:32:08;;;;;;;7.55;5.90;;;;;;;14.95;24.33;100373.09;1770834;79;21088;-11
2021/03/10 06:34:46;;;;;;;12.07;6.08;;;;;;;14.94;24.34;100368.70;1774597;79;21607;-11
2021/03/10 06:37:31;;;;;;;8.35;6.40;;;;;;;14.94;24.26;100374.00;1774008;79;21153;-11
2021/03/10 06:40:12;;;;;;;12.47;6.60;;;;;;;14.95;24.18;100370.45;1749661;79;21137;-11
2021/03/10 06:42:41;;;;;;;13.25;7.35;;;;;;;14.97;24.33;100367.27;1803970;79;21551;-11
2021/03/10 06:45:10;;;;;;;8.45;6.50;;;;;;;14.99;24.28;100365.41;1774614;79;21839;-12
2021/03/10 06:47:40;;;;;;;10.43;6.42;;;;;;;14.98;23.96;100371.66;1774171;79;21133;-11
2021/03/10 06:50:14;;;;;;;9.10;6.28;;;;;;;14.94;24.07;100374.86;1785308;79;21097;-10
2021/03/10 06:52:51;;;;;;;13.10;6.70;;;;;;;14.94;24.02;100374.00;1772916;79;21170;-11
2021/03/10 06:55:18;;;;;;;10.05;6.00;;;;;;;14.94;24.08;100371.36;1782323;79;21590;-11
2021/03/10 06:57:46;;;;;;;7.72;5.80;;;;;;;14.95;24.08;100379.25;1800969;78;21272;-10
2021/03/10 07:00:24;;;;;;;8.10;5.75;;;;;;;14.98;24.10;100370.33;1761074;80;21122;-11
2021/03/10 07:02:52;;;;;;;7.65;5.97;;;;;;;15.01;24.15;100372.84;1792246;78;21140;-11
2021/03/10 07:05:20;;;;;;;6.03;5.08;;;;;;;15.05;24.12;100375.78;1781644;78;21104;-11
2021/03/10 07:07:48;;;;;;;7.05;5.40;;;;;;;15.08;24.18;100378.32;1736878;80;21143;-11
2021/03/10 07:10:18;;;;;;;8.00;5.62;;;;;;;15.12;23.86;100375.08;1823642;78;21576;-11
2021/03/10 07:12:46;;;;;;;7.90;5.40;;;;;;;15.12;24.05;100377.26;1797340;78;21159;-11
2021/03/10 07:15:15;;;;;;;6.72;5.17;;;;;;;15.14;24.03;100376.73;1811022;78;21512;-11
2021/03/10 07:17:45;;;;;;;7.60;5.50;;;;;;;15.18;23.94;100385.42;1771417;78;21125;-11
2021/03/10 07:20:15;;;;;;;8.00;5.20;;;;;;;15.20;23.90;100379.62;1763405;78;21134;-11
2021/03/10 07:22:50;;;;;;;9.90;5.47;;;;;;;15.23;23.90;100372.41;1793663;78;22223;-11
2021/03/10 07:25:35;;;;;;;8.20;5.95;;;;;;;15.28;23.99;100368.69;1823135;78;21630;-11
2021/03/10 07:28:21;;;;;;;6.75;5.47;;;;;;;15.30;23.88;100366.83;1794004;78;21186;-11
2021/03/10 07:30:49;;;;;;;6.85;5.35;;;;;;;15.35;23.93;100369.72;1788392;80;21217;-11
2021/03/10 07:33:20;;;;;;;8.10;5.37;;;;;;;15.39;24.01;100369.13;1790650;78;21236;-11
2021/03/10 07:36:00;;;;;;;6.85;5.40;;;;;;;15.38;23.66;100364.30;1792649;78;21499;-11
2021/03/10 07:38:39;;;;;;;6.53;4.92;;;;;;;15.36;23.93;100369.24;1822351;78;21614;-11
2021/03/10 07:41:10;;;;;;;7.45;5.35;;;;;;;15.38;24.13;100367.38;1778171;79;21197;-11
2021/03/10 07:43:45;;;;;;;8.05;5.53;;;;;;;15.41;23.93;100368.59;1813641;78;21149;-11
2021/03/10 07:46:33;;;;;;;6.83;5.25;;;;;;;15.40;23.54;100369.53;1772246;78;21547;-11
2021/03/10 07:49:05;;;;;;;8.08;5.53;;;;;;;15.36;23.86;100368.77;1806939;78;21199;-11
2021/03/10 07:51:35;;;;;;;7.20;5.08;;;;;;;15.37;24.08;100365.67;1761346;80;37560;-10
2021/03/10 07:54:19;;;;;;;6.33;4.95;;;;;;;15.40;24.23;100365.08;1816273;78;21071;-11
2021/03/10 07:56:46;;;;;;;6.28;4.78;;;;;;;15.45;24.37;100363.58;1801916;78;22424;-11
2021/03/10 07:59:18;;;;;;;8.55;5.53;;;;;;;15.51;24.37;100364.62;1794095;78;21624;-11
2021/03/10 08:01:48;;;;;;;9.18;6.15;;;;;;;15.54;23.82;100364.98;1788642;78;21984;-11
2021/03/10 08:04:17;;;;;;;7.17;5.15;;;;;;;15.44;22.77;100364.49;1787087;80;21070;-11
2021/03/10 08:09:31;;;;;;;5.33;4.83;;;;;;;15.29;23.61;100367.77;1734516;79;24436;-12
2021/03/10 08:12:11;;;;;;;7.83;5.53;;;;;;;15.23;23.99;100371.52;1695103;82;21125;-9
2021/03/10 08:14:47;;;;;;;6.95;5.10;;;;;;;15.23;24.10;100367.10;1781717;80;21199;-9
2021/03/10 08:17:25;;;;;;;;;;;;;;;15.28;23.99;100363.38;1755624;80;21142;-9
2021/03/10 08:20:05;;;;;;;6.15;4.80;;;;;;;15.33;24.31;100367.59;1770847;80;20271;-12
2021/03/10 08:22:33;;;;;;;8.20;5.33;;;;;;;15.40;24.32;100361.58;1763377;80;21588;-10
2021/03/10 08:25:03;;;;;;;5.58;4.87;;;;;;;15.47;24.19;100363.05;1781070;80;21190;-9
2021/03/10 08:27:42;;;;;;;7.50;5.83;;;;;;;15.53;24.16;100356.61;1723207;82;21956;-9
2021/03/10 08:30:14;;;;;;;7.10;5.50;;;;;;;15.58;24.25;100361.26;1738964;80;21023;-9
2021/03/10 08:32:42;;;;;;;8.28;5.22;;;;;;;15.64;24.34;100362.81;1705323;82;21170;-9
2021/03/10 08:35:13;;;;;;;7.15;5.10;;;;;;;15.69;24.36;100364.80;1743978;81;21155;-9
2021/03/10 08:37:42;;;;;;;8.20;5.12;;;;;;;15.73;24.49;100356.63;1714199;80;21637;-9
2021/03/10 08:40:17;;;;;;;6.42;4.70;;;;;;;15.78;24.51;100355.14;1750754;80;21573;-9
2021/03/10 08:42:45;;;;;;;7.17;4.78;;;;;;;15.84;24.26;100361.53;1760609;80;21139;-9
2021/03/10 08:45:31;;;;;;;5.22;4.53;;;;;;;15.88;24.20;100360.92;1781761;80;21150;-9
2021/03/10 08:48:04;;;;;;;;;;;;;;;15.90;24.10;100361.27;1725889;81;21136;-9
2021/03/10 08:50:44;;;;;;;5.58;4.60;;;;;;;15.92;24.04;100356.75;1786065;79;20232;-9
2021/03/10 08:53:15;;;;;;;6.10;4.60;;;;;;;15.96;23.80;100354.83;1763727;80;21190;-9
2021/03/10 08:55:52;;;;;;;8.28;4.90;;;;;;;16.04;23.93;100357.12;1797910;78;22383;-9
2021/03/10 08:58:20;;;;;;;9.55;5.10;;;;;;;16.02;24.07;100356.34;1777735;79;21026;-9
2021/03/10 09:00:50;;;;;;;6.17;4.75;;;;;;;16.04;24.08;100350.05;1806306;78;21556;-9
2021/03/10 09:03:19;;;;;;;6.08;5.05;;;;;;;16.07;24.02;100346.38;1835746;77;21166;-10
2021/03/10 09:05:50;;;;;;;5.78;4.42;;;;;;;16.10;24.13;100341.79;1782931;78;21564;-9
2021/03/10 09:08:24;;;;;;;5.80;4.53;;;;;;;16.13;24.24;100348.77;1824111;77;21608;-10
2021/03/10 09:10:54;;;;;;;6.75;4.70;;;;;;;16.16;24.08;100342.86;1795608;78;21506;-11
2021/03/10 09:13:26;;;;;;;6.50;4.60;;;;;;;16.19;23.93;100339.66;1770192;79;21337;-10
2021/03/10 09:15:56;;;;;;;7.53;4.65;;;;;;;16.21;24.07;100338.67;1765134;80;21010;-10
2021/03/10 09:18:35;;;;;;;6.00;4.55;;;;;;;16.24;23.88;100338.98;1739484;79;21192;-10
2021/03/10 09:21:07;;;;;;;6.15;4.75;;;;;;;16.26;24.08;100335.83;1769032;80;21212;-10
2021/03/10 09:23:37;;;;;;;5.03;4.53;;;;;;;16.29;24.23;100330.34;1801186;79;21630;-10
2021/03/10 09:26:06;;;;;;;6.15;4.72;;;;;;;16.31;24.46;100337.33;1798521;79;21142;-11
2021/03/10 09:28:40;;;;;;;8.13;4.70;;;;;;;16.34;24.17;100331.03;1808550;79;21154;-10
2021/03/10 09:31:20;;;;;;;6.30;4.87;;;;;;;16.42;23.82;100333.31;1835509;75;22816;-9
2021/03/10 09:33:53;;;;;;;6.47;4.72;;;;;;;16.40;23.80;100335.19;1823821;78;21139;-9
2021/03/10 09:36:25;;;;;;;5.45;4.65;;;;;;;16.42;23.88;100336.83;1840551;77;21258;-9
2021/03/10 09:38:54;;;;;;;5.10;4.42;;;;;;;16.44;23.84;100334.98;1827106;77;21122;-9
2021/03/10 09:41:27;;;;;;;4.95;4.45;;;;;;;16.45;23.52;100333.19;1828741;77;21126;-9
2021/03/10 09:44:08;;;;;;;6.62;4.65;;;;;;;16.43;23.64;100335.05;1857876;77;21142;-9
2021/03/10 09:46:40;;;;;;;7.72;4.92;;;;;;;16.44;23.67;100337.64;1828163;77;21140;-10
2021/03/10 09:49:08;;;;;;;7.75;4.40;;;;;;;16.46;23.64;100336.25;1829537;77;21111;-10
2021/03/10 09:51:46;;;;;;;7.47;4.53;;;;;;;16.46;23.52;100333.59;1826978;77;21615;-10
2021/03/10 09:54:16;;;;;;;9.00;4.87;;;;;;;16.48;23.77;100331.24;1826834;77;21118;-11
2021/03/10 09:56:52;;;;;;;7.60;5.28;;;;;;;16.50;24.21;100332.02;1857548;77;21116;-11
2021/03/10 09:59:32;;;;;;;4.95;4.37;;;;;;;16.55;24.57;100335.81;1825023;77;21117;-11
2021/03/10 10:02:01;;;;;;;8.90;5.08;;;;;;;16.60;24.72;100326.30;1829614;77;21084;-11
2021/03/10 10:04:31;;;;;;;6.15;4.90;;;;;;;16.63;24.72;100333.66;1857714;77;21566;-11
2021/03/10 10:07:00;;;;;;;6.87;4.67;;;;;;;16.67;24.51;100332.56;1827966;77;21572;-11
2021/03/10 10:09:29;;;;;;;6.42;4.95;;;;;;;16.69;24.59;100326.73;1833699;77;21555;-11
2021/03/10 10:11:59;;;;;;;7.62;4.60;;;;;;;16.73;24.79;100328.78;1794506;78;21174;-11
2021/03/10 10:14:29;;;;;;;4.87;4.37;;;;;;;16.76;25.06;100331.30;1850840;77;21260;-11
2021/03/10 10:16:56;;;;;;;6.03;4.60;;;;;;;16.78;24.65;100329.42;1858013;77;21153;-10
2021/03/10 10:19:25;;;;;;;8.20;5.08;;;;;;;16.81;24.55;100330.61;1848064;77;21177;-11
2021/03/10 10:21:53;;;;;;;5.97;4.50;;;;;;;16.83;24.64;100317.25;1798819;77;21166;-10
2021/03/10 10:24:23;;;;;;;5.58;4.33;;;;;;;16.86;25.04;100327.74;1795692;77;21141;-11
2021/03/10 10:26:53;;;;;;;5.33;4.40;;;;;;;16.89;24.44;100323.62;1773708;78;22001;-10
2021/03/10 10:29:22;;;;;;;11.20;5.28;;;;;;;16.91;24.49;100315.09;1810019;78;21225;-10
2021/03/10 10:31:51;;;;;;;6.83;4.60;;;;;;;16.93;24.76;100315.91;1795325;79;21157;-10
2021/03/10 10:34:21;;;;;;;6.58;4.55;;;;;;;16.96;24.48;100313.08;1802716;79;21163;-10
2021/03/10 10:36:50;;;;;;;6.62;4.78;;;;;;;16.97;24.09;100310.82;1789408;78;21120;-10
2021/03/10 10:39:21;;;;;;;7.35;4.50;;;;;;;16.98;24.21;100308.56;1741193;80;21160;-10
2021/03/10 10:41:49;;;;;;;8.35;5.00;;;;;;;17.00;24.18;100300.05;1756595;80;21163;-10
2021/03/10 10:44:18;;;;;;;5.15;4.53;;;;;;;17.02;24.03;100300.82;1801168;79;21575;-10
2021/03/10 10:46:46;;;;;;;7.50;5.00;;;;;;;17.04;24.26;100298.94;1774137;79;21595;-10
2021/03/10 10:49:15;;;;;;;5.65;4.70;;;;;;;17.05;24.38;100291.37;1774095;79;21136;-10
2021/03/10 10:51:43;;;;;;;6.95;4.97;;;;;;;17.08;24.59;100299.68;1773879;79;21165;-10
2021/03/10 10:54:27;;;;;;;4.95;4.45;;;;;;;17.14;24.40;100300.69;1838148;75;22721;-9
2021/03/10 10:56:55;;;;;;;5.17;4.08;;;;;;;17.13;24.33;100298.98;1825103;78;20928;-9
2021/03/10 10:59:35;;;;;;;5.85;4.47;;;;;;;17.18;24.36;100294.75;1852920;77;22784;-14
2021/03/10 11:02:05;;;;;;;5.53;4.92;;;;;;;17.15;24.49;100292.27;1834520;77;20950;-11
2021/03/10 11:04:34;;;;;;;6.58;4.75;;;;;;;17.17;24.62;100293.89;1796553;79;22368;-9
2021/03/10 11:07:02;;;;;;;6.53;4.83;;;;;;;17.19;24.50;100289.83;1769977;80;21162;-11
2021/03/10 11:09:30;;;;;;;6.37;4.53;;;;;;;17.21;24.32;100283.96;1763559;78;21148;-11
2021/03/10 11:11:57;;;;;;;8.30;4.37;;;;;;;17.23;23.94;100286.06;1768852;78;21217;-12
2021/03/10 11:14:26;;;;;;;7.75;4.67;;;;;;;17.22;24.03;100281.70;1793386;77;21566;-10
2021/03/10 11:16:58;;;;;;;5.22;4.03;;;;;;;17.23;24.21;100280.75;1821930;78;21187;-10
2021/03/10 11:19:27;;;;;;;5.28;4.28;;;;;;;17.25;23.86;100284.22;1809324;78;21176;-10
2021/03/10 11:21:57;;;;;;;5.80;4.17;;;;;;;17.26;23.76;100279.27;1788156;77;21571;-12
2021/03/10 11:24:24;;;;;;;6.90;4.42;;;;;;;17.27;23.57;100277.02;1802745;78;21049;-11
2021/03/10 11:26:52;;;;;;;9.45;4.42;;;;;;;17.27;23.36;100282.33;1755944;78;21131;-11
2021/03/10 11:29:22;;;;;;;4.78;4.28;;;;;;;17.20;22.78;100281.78;1824263;78;21159;-12
2021/03/10 11:31:50;;;;;;;4.65;4.20;;;;;;;17.06;22.88;100273.16;1794489;78;21153;-12
2021/03/10 11:34:18;;;;;;;4.67;4.20;;;;;;;16.97;22.93;100270.95;1827471;77;21215;-12
2021/03/10 11:36:46;;;;;;;4.87;3.77;;;;;;;16.92;22.98;100274.30;1827103;77;21073;-11
2021/03/10 11:39:15;;;;;;;6.22;3.80;;;;;;;16.81;21.68;100278.79;1827467;77;21108;-11
2021/03/10 11:41:43;;;;;;;4.72;4.08;;;;;;;16.69;22.53;100274.92;1807633;78;21089;-11